aviador You're here:

LFJL Decoded Metar

METZ in FRANCE
Report Time2017-10-17 11:00:00
UTC Time2017-10-17 11:24:23
Flight Rules vfr VFR
Wind140° at 05 kt
W.Decomp.*RWY 22: 0.9 kt HW 4.9 kt LCW
W.Rank140° ranks 28
Current wind is below 140° avg. (7.2)
Visibility9999 m
Phenomena:N/A
Clouds:N/A
Expected CloudBase > 2,800 ft AGL from Temp-Dew spread
CeilingNone
Temp20°C (ISA +7)
Dew Point13°C (64% RH)
AAT19.1°C
QNH1022 hPa
Density Alt1,552 ft
Elevation866 ft
Report Wrong Elevation
Raw Report
LFJL 171100Z AUTO 14005KT 100V170 CAVOK 20/13 Q1022 NOSIG=

Extra information for LFJL:More info

Metar Taf Metar & Taf Last 4 Metars F.Rules Stats Wind Profile Meteogram Temp Stats Airport Information Weather charts Add Link Nearby VenuesMetar ALERT Operation Metar Decoded Social comments